Time;durP1;ratioP1;P1;durP2;ratioP2;P2;SDS_P1;SDS_P2;PMS_P1;PMS_P2;Temp;Humidity;BMP_temperature;BMP_pressure;BME280_temperature;BME280_humidity;BME280_pressure;Samples;Min_cycle;Max_cycle;Signal;HPM_P1;HPM_P2
2021/04/18 00:02:04;;;;;;;6.30;4.60;;;;;;;6.05;91.11;100767.71;649251;217;24752;-74
2021/04/18 00:04:32;;;;;;;7.50;4.30;;;;;;;6.12;90.69;100766.39;647613;218;24781;-74
2021/04/18 00:07:00;;;;;;;4.80;4.27;;;;;;;6.18;90.03;100768.55;640782;222;26984;-74
2021/04/18 00:09:28;;;;;;;8.50;4.70;;;;;;;6.36;89.56;100756.16;651478;217;24770;-75
2021/04/18 00:11:56;;;;;;;7.13;4.17;;;;;;;6.16;89.19;100765.24;643947;222;24795;-75
2021/04/18 00:14:25;;;;;;;4.70;3.93;;;;;;;6.15;89.51;100755.37;646918;218;27979;-74
2021/04/18 00:16:52;;;;;;;6.10;4.43;;;;;;;6.28;89.07;100756.67;646438;218;24837;-74
2021/04/18 00:19:20;;;;;;;4.87;4.27;;;;;;;6.29;89.13;100747.98;647494;217;24748;-74
2021/04/18 00:21:48;;;;;;;5.60;4.27;;;;;;;6.40;88.47;100745.50;649179;217;24776;-74
2021/04/18 00:24:16;;;;;;;5.43;4.20;;;;;;;6.45;88.24;100738.25;651874;217;24795;-74
2021/04/18 00:26:44;;;;;;;4.73;4.00;;;;;;;6.55;87.65;100734.11;640002;222;24846;-74
2021/04/18 00:29:12;;;;;;;6.60;4.17;;;;;;;6.92;84.96;100722.49;646861;217;44021;-74
2021/04/18 00:31:40;;;;;;;6.00;4.40;;;;;;;6.44;87.07;100734.48;652328;219;23667;-73
2021/04/18 00:34:08;;;;;;;4.70;4.07;;;;;;;6.33;87.56;100739.56;644187;222;25012;-74
2021/04/18 00:36:36;;;;;;;8.50;4.77;;;;;;;6.22;88.72;100735.15;648949;221;24814;-74
2021/04/18 00:39:04;;;;;;;4.60;4.10;;;;;;;6.34;88.74;100736.89;644161;221;24858;-75
2021/04/18 00:41:33;;;;;;;6.80;4.80;;;;;;;6.52;87.92;100726.58;643125;221;24809;-74
2021/04/18 00:44:00;;;;;;;7.00;4.33;;;;;;;6.45;88.03;100727.09;654230;217;24751;-74
2021/04/18 00:46:28;;;;;;;5.70;4.20;;;;;;;6.50;87.53;100721.98;650610;217;25284;-74
2021/04/18 00:48:56;;;;;;;6.53;3.93;;;;;;;6.53;88.00;100724.35;660383;217;24712;-74
2021/04/18 00:51:24;;;;;;;4.90;4.40;;;;;;;6.61;89.00;100728.14;649540;217;24749;-75
2021/04/18 00:53:52;;;;;;;6.30;4.60;;;;;;;6.55;88.40;100724.24;638874;221;24868;-74
2021/04/18 00:56:20;;;;;;;10.63;4.43;;;;;;;6.58;88.38;100719.32;642090;222;24795;-74
2021/04/18 00:58:48;;;;;;;6.17;4.43;;;;;;;6.61;87.89;100718.63;643386;220;24976;-74
2021/04/18 01:01:16;;;;;;;6.60;4.33;;;;;;;6.67;88.09;100714.34;642805;221;24801;-74
2021/04/18 01:03:44;;;;;;;5.00;4.47;;;;;;;6.68;88.59;100715.17;634725;221;24752;-74
2021/04/18 01:06:12;;;;;;;5.03;4.33;;;;;;;6.80;88.56;100716.89;654378;217;24771;-74
2021/04/18 01:08:40;;;;;;;6.53;4.47;;;;;;;6.68;88.48;100713.41;640150;222;24788;-74
2021/04/18 01:11:08;;;;;;;7.00;4.80;;;;;;;6.63;88.37;100718.55;646215;220;24859;-74
2021/04/18 01:13:35;;;;;;;6.07;4.40;;;;;;;6.73;88.36;100710.02;641180;221;24818;-74
2021/04/18 01:16:04;;;;;;;5.37;4.10;;;;;;;6.83;87.67;100706.33;642270;221;24788;-74
2021/04/18 01:18:32;;;;;;;8.10;4.83;;;;;;;6.95;87.63;100709.34;646590;219;27952;-74
2021/04/18 01:21:04;;;;;;;6.13;4.50;;;;;;;6.92;87.91;100703.56;651917;218;24753;-75
2021/04/18 01:23:32;;;;;;;5.17;4.30;;;;;;;6.84;88.54;100700.22;647622;222;24766;-74
2021/04/18 01:26:00;;;;;;;5.53;3.90;;;;;;;6.80;88.85;100700.09;639595;221;26922;-75
2021/04/18 01:28:28;;;;;;;6.40;4.60;;;;;;;6.77;88.75;100697.73;651665;219;24745;-74
2021/04/18 01:30:56;;;;;;;4.67;4.20;;;;;;;6.77;89.44;100694.68;645659;218;24752;-75
2021/04/18 01:33:24;;;;;;;6.07;4.30;;;;;;;6.75;89.38;100696.98;635553;222;24795;-74
2021/04/18 01:35:52;;;;;;;7.37;4.70;;;;;;;6.72;90.20;100701.91;658382;217;24755;-74
2021/04/18 01:38:20;;;;;;;6.50;4.43;;;;;;;6.79;89.68;100698.45;643184;222;25076;-74
2021/04/18 01:40:48;;;;;;;5.00;4.30;;;;;;;7.45;86.80;100690.59;648354;217;32892;-75
2021/04/18 01:43:16;;;;;;;5.73;4.47;;;;;;;7.13;88.20;100688.61;651477;217;24733;-73
2021/04/18 01:45:44;;;;;;;6.23;4.30;;;;;;;7.15;87.85;100688.03;638303;221;24764;-74
2021/04/18 01:48:12;;;;;;;8.10;4.60;;;;;;;7.19;87.24;100690.41;644438;222;24797;-74
2021/04/18 01:50:41;;;;;;;5.63;4.20;;;;;;;7.20;87.85;100694.65;647298;221;24852;-74
2021/04/18 01:53:09;;;;;;;5.00;4.20;;;;;;;7.11;87.83;100696.12;646122;219;24791;-74
2021/04/18 01:55:37;;;;;;;6.60;4.57;;;;;;;7.03;88.22;100696.66;635271;226;24844;-75
2021/04/18 01:58:05;;;;;;;4.90;4.40;;;;;;;6.93;88.56;100699.58;641446;221;24826;-74
2021/04/18 02:00:33;;;;;;;8.93;5.00;;;;;;;6.76;89.58;100703.37;642490;221;24809;-74
2021/04/18 02:03:01;;;;;;;8.07;4.87;;;;;;;6.77;89.93;100699.84;646067;221;24818;-74
2021/04/18 02:05:31;;;;;;;7.67;4.80;;;;;;;6.69;90.10;100698.73;647257;221;24806;-74
2021/04/18 02:08:00;;;;;;;4.47;4.07;;;;;;;6.65;90.59;100697.30;641431;221;24777;-74
2021/04/18 02:10:28;;;;;;;8.80;4.77;;;;;;;6.73;90.78;100694.98;649503;219;24768;-75
2021/04/18 02:12:56;;;;;;;8.00;5.13;;;;;;;6.79;90.21;100696.69;654442;217;24758;-75
2021/04/18 02:15:23;;;;;;;6.57;4.90;;;;;;;6.79;91.16;100694.09;654965;217;25010;-74
2021/04/18 02:17:53;;;;;;;7.20;5.30;;;;;;;7.25;88.72;100694.66;648413;217;32584;-74
2021/04/18 02:20:19;;;;;;;6.73;5.13;;;;;;;6.73;90.92;100688.05;656324;217;23667;-74
2021/04/18 02:22:47;;;;;;;8.97;5.27;;;;;;;6.64;92.12;100693.06;645297;221;24852;-74
2021/04/18 02:25:15;;;;;;;8.40;5.57;;;;;;;7.13;90.53;100690.38;639949;221;32652;-75
2021/04/18 02:27:43;;;;;;;7.30;6.07;;;;;;;6.66;90.86;100692.48;649120;217;24751;-74
2021/04/18 02:30:12;;;;;;;9.53;4.83;;;;;;;6.69;91.76;100690.97;649907;217;24766;-74
2021/04/18 02:32:41;;;;;;;8.60;5.60;;;;;;;6.62;90.70;100688.02;638633;222;24823;-74
2021/04/18 02:35:10;;;;;;;7.80;5.40;;;;;;;6.70;90.64;100678.41;643930;221;24783;-74
2021/04/18 02:37:38;;;;;;;9.00;4.90;;;;;;;6.64;90.14;100682.27;649614;217;24759;-74
2021/04/18 02:40:07;;;;;;;9.37;5.60;;;;;;;6.72;89.85;100682.53;644573;222;24799;-73
2021/04/18 02:42:37;;;;;;;8.63;5.70;;;;;;;7.37;88.02;100681.30;641738;221;43376;-74
2021/04/18 02:45:04;;;;;;;5.80;5.20;;;;;;;6.78;89.76;100691.63;637211;222;23644;-75
2021/04/18 02:47:32;;;;;;;8.50;5.97;;;;;;;6.70;91.06;100694.73;641430;221;25047;-74
2021/04/18 02:50:00;;;;;;;9.00;5.57;;;;;;;6.73;91.45;100694.52;636971;221;24800;-74
2021/04/18 02:52:29;;;;;;;8.70;5.43;;;;;;;6.74;90.20;100687.58;641697;221;24848;-74
2021/04/18 02:54:57;;;;;;;7.33;6.63;;;;;;;6.81;90.46;100681.06;640816;221;24805;-74
2021/04/18 02:57:25;;;;;;;8.27;5.87;;;;;;;6.89;89.76;100680.02;642366;222;24838;-74
2021/04/18 02:59:53;;;;;;;5.63;5.13;;;;;;;6.79;88.80;100677.77;640334;221;24814;-74
2021/04/18 03:02:21;;;;;;;5.87;5.13;;;;;;;6.82;89.06;100672.37;638398;221;24798;-73
2021/04/18 03:04:49;;;;;;;7.70;5.17;;;;;;;6.73;89.96;100676.89;636674;221;24805;-74
2021/04/18 03:07:17;;;;;;;7.90;5.67;;;;;;;6.74;90.35;100681.13;640248;221;24802;-73
2021/04/18 03:09:44;;;;;;;7.87;5.03;;;;;;;6.80;90.25;100676.36;642597;221;24784;-74
2021/04/18 03:12:13;;;;;;;6.80;5.73;;;;;;;7.32;88.66;100670.00;635349;221;32676;-74
2021/04/18 03:14:40;;;;;;;6.80;5.70;;;;;;;6.70;90.98;100679.23;640500;221;27027;-74
2021/04/18 03:17:08;;;;;;;7.70;5.50;;;;;;;6.58;91.95;100685.27;642256;221;24821;-74
2021/04/18 03:19:36;;;;;;;7.00;5.40;;;;;;;6.60;92.16;100684.68;640728;221;24801;-74
2021/04/18 03:22:06;;;;;;;7.27;5.63;;;;;;;6.64;91.49;100682.27;644625;220;24803;-74
2021/04/18 03:24:36;;;;;;;9.77;5.20;;;;;;;6.62;91.52;100688.48;646436;221;24785;-74
2021/04/18 03:27:01;;;;;;;7.97;5.40;;;;;;;6.60;90.69;100680.80;636582;221;27911;-75
2021/04/18 03:29:29;;;;;;;6.87;5.63;;;;;;;6.46;91.49;100684.35;648993;217;24788;-74
2021/04/18 03:31:57;;;;;;;8.43;5.80;;;;;;;6.35;92.49;100680.89;661477;217;25015;-74
2021/04/18 03:34:25;;;;;;;9.00;5.20;;;;;;;6.39;91.95;100676.69;641556;221;24791;-74
2021/04/18 03:36:53;;;;;;;8.57;5.70;;;;;;;6.41;92.09;100680.45;645521;220;24815;-74
2021/04/18 03:39:21;;;;;;;8.93;5.90;;;;;;;6.35;92.53;100678.31;629468;226;24844;-74
2021/04/18 03:41:48;;;;;;;7.63;5.90;;;;;;;6.25;92.38;100681.52;648939;221;24804;-74
2021/04/18 03:44:16;;;;;;;8.20;5.53;;;;;;;6.27;92.67;100677.53;633920;221;24797;-74
2021/04/18 03:46:44;;;;;;;7.60;4.40;;;;;;;6.37;92.19;100675.15;635981;222;24812;-75
2021/04/18 03:49:12;;;;;;;9.40;5.50;;;;;;;6.33;92.55;100675.80;642159;222;24823;-74
2021/04/18 03:51:40;;;;;;;6.27;5.10;;;;;;;6.45;91.49;100681.41;638549;222;25082;-73
2021/04/18 03:54:08;;;;;;;7.60;5.53;;;;;;;6.60;90.53;100676.11;638533;222;24796;-74
2021/04/18 03:56:36;;;;;;;8.57;5.60;;;;;;;6.58;90.94;100669.75;641473;222;27998;-74
2021/04/18 03:59:04;;;;;;;6.87;5.07;;;;;;;6.55;91.03;100669.51;639903;222;24843;-74
2021/04/18 04:01:33;;;;;;;5.87;4.70;;;;;;;6.55;91.41;100675.97;621939;227;24871;-73
2021/04/18 04:04:01;;;;;;;8.43;5.53;;;;;;;6.67;90.83;100670.87;634731;222;24783;-74
2021/04/18 04:06:29;;;;;;;6.27;5.30;;;;;;;6.72;90.04;100664.91;639958;222;24830;-74
2021/04/18 04:08:56;;;;;;;7.10;4.80;;;;;;;6.65;89.78;100667.11;646309;222;24848;-75
2021/04/18 04:11:24;;;;;;;7.43;5.20;;;;;;;6.61;90.24;100673.88;642641;221;24920;-73
2021/04/18 04:13:52;;;;;;;5.90;5.30;;;;;;;6.58;90.72;100671.05;639744;220;24791;-74
2021/04/18 04:16:20;;;;;;;5.77;4.67;;;;;;;6.65;89.89;100668.41;639467;221;24792;-74
2021/04/18 04:18:48;;;;;;;6.77;4.67;;;;;;;7.00;88.23;100663.28;634522;220;32575;-74
2021/04/18 04:21:16;;;;;;;5.90;4.90;;;;;;;6.57;88.75;100672.45;641685;221;24799;-75
2021/04/18 04:23:44;;;;;;;4.60;4.10;;;;;;;6.43;90.28;100670.37;642259;221;24830;-74
2021/04/18 04:26:12;;;;;;;6.63;4.03;;;;;;;6.40;90.40;100671.88;648644;221;24840;-74
2021/04/18 04:28:40;;;;;;;5.07;4.13;;;;;;;6.47;90.68;100673.09;643113;221;24781;-74
2021/04/18 04:31:08;;;;;;;6.80;4.03;;;;;;;6.39;90.77;100667.65;653598;217;26944;-75
2021/04/18 04:33:37;;;;;;;5.87;4.57;;;;;;;6.25;91.05;100675.53;649832;217;24761;-74
2021/04/18 04:36:05;;;;;;;5.13;4.13;;;;;;;6.05;91.52;100675.59;653544;217;24748;-74
2021/04/18 04:38:33;;;;;;;5.93;4.10;;;;;;;6.15;91.71;100677.09;656366;218;24740;-74
2021/04/18 04:41:01;;;;;;;5.80;4.13;;;;;;;6.12;91.56;100682.00;641748;221;24701;-74
2021/04/18 04:43:29;;;;;;;5.27;4.00;;;;;;;6.17;91.66;100675.22;648499;219;24740;-74
2021/04/18 04:45:57;;;;;;;5.90;4.47;;;;;;;6.22;91.55;100679.62;648405;221;24718;-75
2021/04/18 04:48:25;;;;;;;5.27;4.13;;;;;;;6.96;89.33;100666.20;639154;221;33174;-74
2021/04/18 04:50:53;;;;;;;7.05;4.65;;;;;;;7.31;87.06;100662.33;653491;217;32443;-73
2021/04/18 04:53:21;;;;;;;6.40;4.67;;;;;;;6.89;88.12;100660.64;649930;218;23621;-74
2021/04/18 04:55:49;;;;;;;5.60;4.57;;;;;;;6.93;88.17;100669.84;651022;218;24758;-75
2021/04/18 04:58:16;;;;;;;6.47;3.83;;;;;;;6.73;87.62;100673.02;639298;221;25052;-74
2021/04/18 05:00:44;;;;;;;5.50;4.03;;;;;;;6.48;88.79;100676.05;640937;222;24828;-74
2021/04/18 05:03:12;;;;;;;7.53;3.93;;;;;;;6.59;88.74;100680.91;653993;217;26903;-74
2021/04/18 05:05:40;;;;;;;9.70;4.33;;;;;;;6.72;89.03;100679.94;653231;217;24796;-74
2021/04/18 05:08:08;;;;;;;4.50;3.87;;;;;;;6.81;87.92;100675.89;644562;221;24806;-74
2021/04/18 05:10:36;;;;;;;6.77;3.60;;;;;;;6.87;88.10;100675.91;638603;221;24832;-73
2021/04/18 05:13:04;;;;;;;6.10;4.00;;;;;;;6.98;88.49;100675.50;644751;221;27983;-73
2021/04/18 05:15:32;;;;;;;6.10;4.60;;;;;;;7.12;87.36;100680.97;638244;222;24802;-73
2021/04/18 05:18:00;;;;;;;6.20;5.53;;;;;;;7.04;87.13;100678.95;649341;217;24756;-75
2021/04/18 05:20:28;;;;;;;7.00;5.00;;;;;;;7.05;88.03;100679.30;644680;221;24800;-74
2021/04/18 05:22:56;;;;;;;5.63;4.93;;;;;;;7.17;87.30;100687.09;646615;221;24796;-75
2021/04/18 05:25:24;;;;;;;6.10;5.00;;;;;;;7.18;87.43;100688.73;646551;222;24803;-74
2021/04/18 05:27:51;;;;;;;5.77;4.80;;;;;;;7.14;87.50;100694.14;640318;221;24830;-74
2021/04/18 05:30:21;;;;;;;7.33;5.70;;;;;;;7.70;86.26;100688.31;632163;222;32693;-74
2021/04/18 05:32:49;;;;;;;5.10;4.60;;;;;;;7.24;88.06;100698.19;638926;221;24838;-74
2021/04/18 05:35:17;;;;;;;5.10;4.50;;;;;;;7.25;88.49;100702.42;637930;222;24872;-74
2021/04/18 05:37:45;;;;;;;5.03;4.47;;;;;;;7.45;87.99;100700.95;637519;221;24784;-74
2021/04/18 05:40:13;;;;;;;8.77;4.90;;;;;;;7.52;88.60;100697.45;644500;221;24827;-75
2021/04/18 05:42:41;;;;;;;6.13;5.20;;;;;;;7.61;87.54;100692.90;653983;218;24783;-74
2021/04/18 05:45:10;;;;;;;7.50;5.13;;;;;;;7.79;86.44;100693.28;646813;218;24758;-74
2021/04/18 05:47:38;;;;;;;6.40;5.00;;;;;;;7.81;86.12;100690.92;644656;219;24764;-74
2021/04/18 05:50:07;;;;;;;5.87;5.13;;;;;;;7.89;85.57;100691.66;645685;221;24806;-74
2021/04/18 05:52:35;;;;;;;8.17;5.23;;;;;;;8.10;85.45;100690.00;642952;221;24838;-74
2021/04/18 05:55:03;;;;;;;8.60;5.37;;;;;;;8.04;85.63;100695.67;647010;221;24865;-74
2021/04/18 05:57:31;;;;;;;6.13;4.97;;;;;;;8.22;85.02;100692.95;641913;222;24836;-74
2021/04/18 05:59:59;;;;;;;8.73;5.50;;;;;;;8.07;86.21;100692.84;652795;218;24752;-75
2021/04/18 06:02:27;;;;;;;7.83;5.23;;;;;;;7.96;84.37;100691.06;646707;221;24861;-75
2021/04/18 06:04:55;;;;;;;6.17;4.53;;;;;;;8.10;84.21;100690.00;658086;217;25013;-75
2021/04/18 06:07:23;;;;;;;6.47;5.00;;;;;;;8.43;83.48;100685.78;648865;217;24803;-74
2021/04/18 06:09:51;;;;;;;8.63;6.50;;;;;;;8.98;81.39;100680.12;634898;222;32623;-75
2021/04/18 06:12:19;;;;;;;9.27;6.30;;;;;;;8.77;81.99;100678.78;657272;217;23708;-74
2021/04/18 06:14:47;;;;;;;10.10;5.57;;;;;;;8.74;81.82;100681.15;645787;222;24817;-75
2021/04/18 06:17:15;;;;;;;7.03;6.10;;;;;;;9.18;80.39;100679.34;633486;222;32674;-75
2021/04/18 06:19:42;;;;;;;7.77;5.90;;;;;;;9.45;79.58;100681.46;634337;222;32786;-74
2021/04/18 06:22:10;;;;;;;8.93;5.40;;;;;;;8.91;80.45;100690.17;647236;222;24875;-74
2021/04/18 06:24:38;;;;;;;7.60;5.33;;;;;;;9.42;79.09;100691.59;647952;218;32558;-74
2021/04/18 06:27:07;;;;;;;8.00;5.20;;;;;;;9.07;80.12;100679.39;640904;222;24800;-74
2021/04/18 06:29:35;;;;;;;8.03;5.77;;;;;;;9.40;79.72;100679.22;642529;222;24821;-74
2021/04/18 06:32:03;;;;;;;6.53;5.13;;;;;;;9.46;78.55;100676.14;644580;222;24797;-75
2021/04/18 06:34:31;;;;;;;7.70;5.62;;;;;;;9.93;77.92;100675.72;635364;222;32724;-74
2021/04/18 06:36:59;;;;;;;8.10;5.90;;;;;;;9.55;78.14;100668.52;635869;222;23674;-74
2021/04/18 06:39:27;;;;;;;16.27;7.23;;;;;;;9.64;78.07;100678.16;645300;219;24816;-74
2021/04/18 06:41:54;;;;;;;7.27;6.00;;;;;;;10.05;77.05;100678.58;639140;221;32780;-73
2021/04/18 06:44:22;;;;;;;8.07;5.70;;;;;;;9.60;77.58;100674.18;644149;220;24823;-74
2021/04/18 06:46:50;;;;;;;7.07;5.30;;;;;;;9.44;79.34;100687.13;646025;221;25066;-74
2021/04/18 06:49:18;;;;;;;9.17;5.33;;;;;;;9.44;78.88;100685.83;641751;221;32690;-75
2021/04/18 06:51:46;;;;;;;9.27;5.73;;;;;;;9.34;79.45;100694.49;641317;220;24812;-74
2021/04/18 06:54:14;;;;;;;7.33;5.33;;;;;;;9.55;79.45;100685.40;651408;217;24725;-75
2021/04/18 06:56:42;;;;;;;7.37;5.60;;;;;;;9.62;78.16;100680.88;652966;217;24768;-75
2021/04/18 06:59:10;;;;;;;9.50;5.70;;;;;;;10.13;76.92;100680.03;638488;220;32658;-74
2021/04/18 07:01:38;;;;;;;10.23;6.27;;;;;;;9.87;76.36;100671.05;638670;222;24815;-75
2021/04/18 07:04:11;;;;;;;10.17;6.20;;;;;;;9.81;77.16;100681.46;641709;222;24814;-74
2021/04/18 07:06:39;;;;;;;9.00;6.07;;;;;;;9.69;77.31;100674.69;639393;221;28012;-75
2021/04/18 07:09:07;;;;;;;8.83;5.47;;;;;;;9.73;75.41;100667.83;644497;221;24810;-74
2021/04/18 07:11:44;;;;;;;6.90;5.23;;;;;;;9.51;74.54;100658.88;643586;221;24804;-75
2021/04/18 07:14:21;;;;;;;8.33;5.27;;;;;;;9.46;74.50;100654.08;634707;221;24794;-75
2021/04/18 07:16:49;;;;;;;9.97;5.70;;;;;;;9.63;75.44;100662.23;636833;221;24844;-75
2021/04/18 07:19:21;;;;;;;9.07;5.57;;;;;;;9.72;74.11;100661.00;641331;222;24798;-74
2021/04/18 07:21:50;;;;;;;9.80;5.63;;;;;;;9.67;74.79;100659.23;658701;217;24762;-75
2021/04/18 07:24:18;;;;;;;7.43;5.33;;;;;;;9.76;75.02;100664.16;651908;217;24767;-74
2021/04/18 07:26:55;;;;;;;6.37;5.07;;;;;;;9.72;73.66;100654.98;654525;217;24810;-74
2021/04/18 07:29:21;;;;;;;8.30;5.37;;;;;;;10.04;72.86;100641.38;655936;217;24770;-74
2021/04/18 07:31:49;;;;;;;7.73;4.97;;;;;;;10.29;73.79;100641.43;649645;217;24760;-75
2021/04/18 07:34:17;;;;;;;8.20;5.87;;;;;;;10.49;72.53;100644.88;654338;217;24762;-74
2021/04/18 07:36:45;;;;;;;8.43;5.50;;;;;;;10.16;72.50;100646.48;651875;217;24766;-75
2021/04/18 07:39:15;;;;;;;6.67;4.87;;;;;;;10.39;73.08;100657.03;651117;217;26896;-75
2021/04/18 07:41:42;;;;;;;7.77;4.70;;;;;;;10.30;72.15;100648.27;648932;217;27949;-74
2021/04/18 07:44:15;;;;;;;5.13;3.87;;;;;;;10.45;69.14;100632.30;643956;222;24800;-74
2021/04/18 07:46:46;;;;;;;7.67;4.90;;;;;;;10.62;68.03;100619.45;647024;219;24757;-74
2021/04/18 07:49:14;;;;;;;5.77;2.90;;;;;;;11.16;65.79;100612.88;653380;218;24765;-74
2021/04/18 07:51:43;;;;;;;4.93;3.60;;;;;;;11.56;65.16;100614.45;642501;219;24790;-74
2021/04/18 07:54:11;;;;;;;5.33;3.50;;;;;;;11.73;62.75;100604.58;654040;217;24801;-72
2021/04/18 07:56:42;;;;;;;6.37;3.83;;;;;;;11.46;63.81;100596.23;645075;220;24833;-74
2021/04/18 07:59:10;;;;;;;6.60;4.50;;;;;;;11.55;62.89;100590.18;637300;221;24771;-75
2021/04/18 08:01:39;;;;;;;9.33;4.87;;;;;;;11.73;63.10;100594.16;648168;218;24767;-75
2021/04/18 08:04:09;;;;;;;6.07;4.50;;;;;;;11.50;63.39;100596.28;635452;221;24944;-74
2021/04/18 08:06:35;;;;;;;6.27;4.40;;;;;;;11.38;63.88;100592.19;645915;222;24807;-75
2021/04/18 08:09:03;;;;;;;7.73;4.83;;;;;;;11.35;62.44;100602.08;640146;221;24790;-74
2021/04/18 08:11:31;;;;;;;8.27;4.50;;;;;;;11.40;63.21;100603.77;641139;220;24809;-75
2021/04/18 08:13:59;;;;;;;5.57;3.83;;;;;;;11.59;62.94;100603.73;647573;221;24750;-75
2021/04/18 08:16:27;;;;;;;6.30;4.47;;;;;;;11.63;63.46;100605.57;638088;222;24792;-74
2021/04/18 08:18:55;;;;;;;6.20;4.33;;;;;;;11.80;62.59;100596.55;652719;218;27954;-75
2021/04/18 08:21:24;;;;;;;8.00;4.40;;;;;;;12.53;63.17;100599.64;652331;219;24756;-75
2021/04/18 08:23:52;;;;;;;6.13;4.53;;;;;;;12.76;61.59;100598.23;646418;218;32544;-74
2021/04/18 08:26:20;;;;;;;5.30;4.80;;;;;;;11.98;63.12;100597.11;635000;221;32689;-75
2021/04/18 08:29:03;;;;;;;5.23;4.43;;;;;;;11.52;64.80;100605.25;647729;218;24755;-74
2021/04/18 08:31:28;;;;;;;6.53;5.00;;;;;;;11.28;65.34;100609.16;637066;222;24820;-75
2021/04/18 08:33:56;;;;;;;8.30;4.67;;;;;;;11.47;65.54;100612.67;644090;222;24907;-75
2021/04/18 08:36:24;;;;;;;8.30;5.17;;;;;;;11.38;65.20;100613.52;646116;222;24810;-74
2021/04/18 08:39:01;;;;;;;5.90;4.57;;;;;;;11.29;65.38;100618.61;640820;221;24812;-74
2021/04/18 08:41:38;;;;;;;9.00;5.10;;;;;;;11.60;65.99;100619.70;648349;217;24818;-75
2021/04/18 08:44:14;;;;;;;7.90;5.10;;;;;;;11.62;65.01;100622.17;640947;218;32496;-74
2021/04/18 08:46:42;;;;;;;6.60;4.60;;;;;;;11.56;65.00;100631.38;654697;217;24786;-73
2021/04/18 08:49:10;;;;;;;5.73;4.50;;;;;;;11.46;65.90;100633.17;654123;217;24757;-75
2021/04/18 08:51:38;;;;;;;8.30;4.80;;;;;;;11.79;66.38;100633.17;656982;218;25047;-74
2021/04/18 08:54:06;;;;;;;6.70;4.70;;;;;;;12.06;64.23;100624.08;651182;217;24766;-74
2021/04/18 08:56:44;;;;;;;8.43;4.80;;;;;;;12.35;62.67;100616.58;642605;222;24837;-74
2021/04/18 08:59:12;;;;;;;8.73;5.57;;;;;;;12.78;60.68;100606.73;661316;217;24791;-75
2021/04/18 09:01:40;;;;;;;8.23;5.30;;;;;;;12.62;61.27;100602.67;642706;220;24821;-75
2021/04/18 09:04:11;;;;;;;9.23;4.70;;;;;;;12.54;61.09;100599.52;644913;219;24847;-75
2021/04/18 09:06:37;;;;;;;7.73;4.80;;;;;;;12.91;61.48;100592.82;642189;220;24804;-75
2021/04/18 09:09:06;;;;;;;7.33;5.00;;;;;;;13.00;60.23;100593.72;646729;221;24800;-72
2021/04/18 09:11:37;;;;;;;7.20;4.97;;;;;;;13.03;60.52;100582.97;653139;218;24814;-72
2021/04/18 09:14:05;;;;;;;9.97;5.50;;;;;;;12.89;61.30;100593.45;658045;217;24751;-71
2021/04/18 09:16:33;;;;;;;8.23;6.00;;;;;;;12.89;61.68;100607.00;638598;221;35019;-72
2021/04/18 09:19:22;;;;;;;7.47;5.00;;;;;;;12.44;62.65;100603.97;646821;221;25004;-75
2021/04/18 09:21:56;;;;;;;14.80;7.07;;;;;;;11.75;63.00;100600.05;637168;222;23822;-75
2021/04/18 09:24:24;;;;;;;8.77;5.13;;;;;;;12.00;63.17;100605.60;643985;221;24810;-75
2021/04/18 09:26:55;;;;;;;6.80;4.77;;;;;;;12.43;62.95;100612.28;644859;221;23826;-75
2021/04/18 09:29:23;;;;;;;7.10;5.13;;;;;;;12.72;62.15;100610.77;647159;221;28022;-74
2021/04/18 09:31:57;;;;;;;6.67;4.37;;;;;;;12.60;61.11;100602.83;644678;221;25245;-75
2021/04/18 09:34:25;;;;;;;9.73;5.70;;;;;;;12.42;61.59;100600.21;652465;217;30250;-74
2021/04/18 09:36:53;;;;;;;9.37;5.50;;;;;;;12.72;61.16;100599.03;647403;221;24804;-72
2021/04/18 09:39:21;;;;;;;10.50;5.70;;;;;;;13.35;61.88;100596.27;643405;221;24805;-75
2021/04/18 09:41:49;;;;;;;8.57;5.50;;;;;;;13.32;60.28;100591.84;657731;217;24779;-73
2021/04/18 09:44:27;;;;;;;10.60;5.53;;;;;;;13.36;61.01;100594.48;642852;221;24800;-72
2021/04/18 09:46:57;;;;;;;8.17;5.30;;;;;;;12.78;62.03;100598.91;637161;222;24797;-74
2021/04/18 09:49:24;;;;;;;10.73;5.57;;;;;;;12.53;61.66;100600.95;647087;222;24804;-75
2021/04/18 09:52:01;;;;;;;12.20;6.57;;;;;;;12.98;62.22;100603.01;640425;222;24868;-75
2021/04/18 09:54:29;;;;;;;8.93;6.27;;;;;;;13.16;60.34;100597.75;647476;219;24774;-74
2021/04/18 09:57:08;;;;;;;9.20;5.77;;;;;;;12.98;60.37;100596.48;650538;218;32256;-75
2021/04/18 09:59:36;;;;;;;13.20;6.77;;;;;;;13.25;60.45;100594.27;653277;217;31278;-74
2021/04/18 10:02:11;;;;;;;9.93;6.50;;;;;;;13.07;61.48;100596.05;640808;222;24824;-74
2021/04/18 10:04:39;;;;;;;11.30;6.50;;;;;;;12.57;62.50;100599.70;644051;221;24801;-75
2021/04/18 10:07:08;;;;;;;9.20;5.77;;;;;;;12.48;64.48;100606.13;634991;226;24870;-75
2021/04/18 10:09:46;;;;;;;10.93;6.87;;;;;;;12.67;62.05;100609.11;639757;221;25061;-75
2021/04/18 10:12:14;;;;;;;7.95;6.65;;;;;;;13.13;61.00;100591.53;641199;222;32703;-74
2021/04/18 10:14:42;;;;;;;8.40;6.47;;;;;;;12.75;62.80;100597.42;641783;220;22746;-74
2021/04/18 10:17:09;;;;;;;12.70;7.13;;;;;;;12.58;61.63;100599.55;650412;217;25072;-74
2021/04/18 10:19:50;;;;;;;10.58;7.20;;;;;;;12.95;61.04;100600.70;647842;217;32531;-76
2021/04/18 10:22:18;;;;;;;9.40;6.50;;;;;;;12.78;62.09;100598.42;655234;217;23846;-75
2021/04/18 10:24:47;;;;;;;10.90;6.53;;;;;;;13.12;62.26;100604.75;654630;218;24769;-76
2021/04/18 10:27:14;;;;;;;8.00;6.90;;;;;;;13.43;60.34;100598.62;652273;218;24779;-72
2021/04/18 10:29:42;;;;;;;10.33;6.60;;;;;;;13.68;60.33;100599.09;648141;218;24763;-73
2021/04/18 10:32:10;;;;;;;10.63;6.60;;;;;;;13.42;60.51;100599.11;637685;221;24783;-71
2021/04/18 10:34:38;;;;;;;10.40;7.00;;;;;;;12.88;60.48;100591.82;642447;221;24902;-74
2021/04/18 10:37:06;;;;;;;10.23;6.83;;;;;;;12.72;62.57;100599.52;644351;221;26030;-74
2021/04/18 10:39:34;;;;;;;9.77;6.43;;;;;;;13.16;61.23;100590.41;640468;221;24804;-74
2021/04/18 10:42:02;;;;;;;9.33;6.37;;;;;;;13.51;59.44;100583.82;653442;217;24810;-71
2021/04/18 10:44:30;;;;;;;8.13;6.17;;;;;;;13.54;58.87;100577.45;652276;217;23779;-72
2021/04/18 10:46:58;;;;;;;10.20;7.53;;;;;;;13.47;60.31;100575.94;653913;217;23903;-72
2021/04/18 10:49:26;;;;;;;9.20;6.50;;;;;;;13.63;59.92;100582.55;642743;221;23829;-71
2021/04/18 10:51:54;;;;;;;9.87;6.53;;;;;;;14.10;59.21;100583.42;640755;220;24824;-71
2021/04/18 10:54:22;;;;;;;13.30;8.00;;;;;;;13.96;58.94;100573.08;638428;222;24806;-71
2021/04/18 10:56:50;;;;;;;14.65;8.38;;;;;;;14.24;58.20;100571.03;637466;222;33030;-71
2021/04/18 10:59:18;;;;;;;11.07;8.20;;;;;;;13.73;61.29;100573.30;647740;219;25755;-74
2021/04/18 11:01:46;;;;;;;12.33;7.20;;;;;;;13.53;61.71;100575.33;652540;217;26885;-72
2021/04/18 11:04:15;;;;;;;10.97;8.13;;;;;;;13.90;61.17;100577.61;637977;222;25903;-74
2021/04/18 11:06:41;;;;;;;15.00;7.33;;;;;;;13.89;58.77;100572.54;643243;222;24807;-71
2021/04/18 11:09:09;;;;;;;11.17;7.50;;;;;;;13.74;59.31;100572.31;651767;217;24740;-73
2021/04/18 11:11:37;;;;;;;11.23;7.30;;;;;;;13.29;59.59;100560.33;641405;222;24796;-72
2021/04/18 11:14:06;;;;;;;14.47;10.63;;;;;;;13.40;60.87;100567.09;647524;221;24844;-75
2021/04/18 11:16:33;;;;;;;14.73;8.90;;;;;;;13.43;61.37;100572.49;629988;225;24844;-74
2021/04/18 11:19:01;;;;;;;12.13;8.60;;;;;;;13.01;62.40;100571.37;640676;222;24937;-74
2021/04/18 11:21:29;;;;;;;11.33;7.20;;;;;;;12.45;63.33;100584.26;649201;218;25129;-74
2021/04/18 11:23:57;;;;;;;18.47;11.80;;;;;;;12.66;63.71;100583.13;647367;222;24778;-74
2021/04/18 11:26:25;;;;;;;15.40;8.50;;;;;;;12.94;62.61;100579.45;656765;217;24776;-74
2021/04/18 11:28:53;;;;;;;16.10;10.43;;;;;;;13.26;62.28;100578.92;641775;221;24816;-74
2021/04/18 11:31:21;;;;;;;12.60;8.30;;;;;;;13.65;60.86;100577.16;654595;217;24763;-73
2021/04/18 11:33:49;;;;;;;12.50;7.60;;;;;;;13.91;59.88;100565.36;654390;217;24755;-71
2021/04/18 11:36:18;;;;;;;17.37;8.40;;;;;;;14.08;60.61;100556.61;648832;218;24785;-74